Time;durP1;ratioP1;P1;durP2;ratioP2;P2;SDS_P1;SDS_P2;PMS_P1;PMS_P2;Temp;Humidity;BMP_temperature;BMP_pressure;BME280_temperature;BME280_humidity;BME280_pressure;Samples;Min_cycle;Max_cycle;Signal;HPM_P1;HPM_P2
2021/03/28 00:05:14;;;;;;;9.00;3.95;;;;;;;2.39;82.77;100752.56;252196;1105;116447;-69
2021/03/28 00:10:32;;;;;;;6.55;4.87;;;;;;;2.35;82.95;100747.61;251502;1105;116353;-69
2021/03/28 00:15:40;;;;;;;6.50;4.03;;;;;;;2.32;82.16;100742.66;252498;1105;116810;-69
2021/03/28 00:20:46;;;;;;;7.80;5.05;;;;;;;2.23;83.52;100735.70;251078;1106;116474;-68
2021/03/28 00:26:18;;;;;;;7.50;5.60;;;;;;;2.24;83.20;100754.94;251231;1106;116601;-65
2021/03/28 00:31:33;;;;;;;8.85;4.58;;;;;;;2.17;82.64;100754.73;251120;1107;116552;-66
2021/03/28 00:36:56;;;;;;;9.13;4.72;;;;;;;2.12;83.44;100757.03;251191;1108;115965;-66
2021/03/28 00:42:08;;;;;;;8.15;5.75;;;;;;;2.07;83.66;100763.72;252133;1105;116368;-66
2021/03/28 00:47:20;;;;;;;10.28;5.17;;;;;;;2.06;82.37;100765.53;251933;1105;116812;-65
2021/03/28 00:52:29;;;;;;;9.08;6.05;;;;;;;2.15;83.33;100766.38;251495;1108;117901;-63
2021/03/28 00:57:39;;;;;;;8.68;6.30;;;;;;;2.13;83.31;100773.63;251259;1105;116521;-63
2021/03/28 01:03:03;;;;;;;7.87;4.33;;;;;;;2.10;82.65;100766.05;252916;1105;115970;-65
2021/03/28 01:08:22;;;;;;;15.30;6.30;;;;;;;2.18;83.77;100771.34;251461;1104;117365;-66
2021/03/28 01:13:44;;;;;;;;;;;;;;;2.19;82.54;100762.47;251711;1106;116625;-65
2021/03/28 01:19:25;;;;;;;8.37;5.13;;;;;;;2.27;82.41;100773.88;252587;1105;104156;-65
2021/03/28 01:24:58;;;;;;;8.85;4.70;;;;;;;2.26;81.54;100777.48;252728;1105;115892;-65
2021/03/28 01:30:13;;;;;;;10.23;5.80;;;;;;;2.28;81.23;100770.26;254381;1105;135915;-65
2021/03/28 01:35:31;;;;;;;7.67;4.87;;;;;;;2.39;82.01;100781.51;254004;1104;116034;-66
2021/03/28 01:40:37;;;;;;;10.80;5.85;;;;;;;2.44;81.42;100779.23;253648;1104;115618;-66
2021/03/28 01:46:06;;;;;;;7.60;5.03;;;;;;;2.35;81.53;100781.81;252963;1105;114976;-65
2021/03/28 01:51:09;;;;;;;9.75;4.50;;;;;;;2.27;81.41;100786.20;254001;1104;114872;-67
2021/03/28 01:56:39;;;;;;;6.20;4.60;;;;;;;2.21;81.86;100790.27;251921;1105;115295;-66
2021/03/28 02:01:44;;;;;;;7.67;4.60;;;;;;;2.21;81.05;100787.64;251280;1109;116618;-66
2021/03/28 02:06:55;;;;;;;7.95;4.45;;;;;;;2.19;82.34;100786.14;251903;1107;115266;-66
2021/03/28 02:12:07;;;;;;;10.15;5.72;;;;;;;2.17;82.02;100791.55;251824;1106;116196;-67
2021/03/28 02:17:29;;;;;;;9.10;4.22;;;;;;;2.14;82.10;100791.86;252011;1105;115421;-64
2021/03/28 02:23:08;;;;;;;8.20;4.95;;;;;;;2.15;83.46;100788.25;252317;1105;115411;-65
2021/03/28 02:28:48;;;;;;;6.25;4.78;;;;;;;2.20;82.38;100796.51;251382;1105;140165;-65
2021/03/28 02:34:18;;;;;;;10.75;5.67;;;;;;;2.19;82.85;100792.23;251397;1105;137394;-64
2021/03/28 02:39:54;;;;;;;11.73;6.10;;;;;;;2.16;82.03;100803.05;252260;1104;115487;-65
2021/03/28 02:45:06;;;;;;;5.83;4.55;;;;;;;2.17;82.20;100804.70;252072;1105;115847;-64
2021/03/28 02:50:31;;;;;;;12.40;6.22;;;;;;;2.21;81.75;100806.05;251283;1105;117435;-64
2021/03/28 02:56:04;;;;;;;4.37;3.22;;;;;;;2.14;81.64;100815.53;250956;1106;115439;-63
2021/03/28 03:01:43;;;;;;;12.18;6.50;;;;;;;2.27;82.18;100829.12;252459;1106;115162;-63
2021/03/28 03:06:59;;;;;;;9.93;7.00;;;;;;;2.35;82.16;100834.44;252928;1105;115640;-66
2021/03/28 03:12:32;;;;;;;14.50;7.40;;;;;;;2.40;82.04;100848.95;253093;1105;114994;-67
2021/03/28 03:18:05;;;;;;;11.30;6.77;;;;;;;2.45;82.08;100846.65;253554;1104;115132;-67
2021/03/28 03:23:36;;;;;;;9.33;5.37;;;;;;;2.50;81.31;100845.20;251482;1105;114417;-67
2021/03/28 03:29:17;;;;;;;19.65;7.08;;;;;;;2.52;82.75;100850.32;253095;1105;115145;-67
2021/03/28 03:34:57;;;;;;;10.28;7.30;;;;;;;2.50;82.65;100863.63;252187;1104;115531;-67
2021/03/28 03:40:15;;;;;;;10.78;6.40;;;;;;;2.60;80.90;100860.91;254085;1104;115454;-68
2021/03/28 03:45:47;;;;;;;11.53;6.67;;;;;;;2.67;81.92;100865.40;251651;1105;115318;-67
2021/03/28 03:51:20;;;;;;;8.23;5.67;;;;;;;2.70;80.93;100874.80;252878;1105;115187;-68
2021/03/28 03:56:49;;;;;;;11.30;6.08;;;;;;;2.68;81.63;100879.39;253104;1108;115462;-68
2021/03/28 04:02:20;;;;;;;9.25;6.95;;;;;;;2.74;80.06;100886.67;251597;1105;115111;-67
2021/03/28 04:07:56;;;;;;;10.47;7.40;;;;;;;2.77;81.06;100893.41;252012;1107;137778;-66
2021/03/28 04:13:21;;;;;;;6.03;4.78;;;;;;;2.71;80.85;100902.77;251059;1105;115270;-64
2021/03/28 04:18:36;;;;;;;8.90;5.57;;;;;;;2.61;81.35;100913.40;252407;1105;115058;-65
2021/03/28 04:24:01;;;;;;;10.30;7.00;;;;;;;2.49;81.21;100919.88;251600;1105;115130;-67
2021/03/28 04:29:09;;;;;;;8.48;6.87;;;;;;;2.48;81.19;100909.51;251573;1105;115305;-66
2021/03/28 04:34:39;;;;;;;8.77;6.30;;;;;;;2.43;81.92;100917.89;251927;1105;115071;-67
2021/03/28 04:39:46;;;;;;;14.07;8.60;;;;;;;2.39;82.11;100919.17;252107;1105;114623;-66
2021/03/28 04:45:16;;;;;;;10.20;6.37;;;;;;;2.42;83.48;100926.77;251970;1105;115207;-63
2021/03/28 04:50:29;;;;;;;12.90;9.38;;;;;;;2.46;82.38;100935.15;251532;1105;115142;-62
2021/03/28 04:56:09;;;;;;;8.25;6.42;;;;;;;2.45;82.25;100936.13;251692;1104;114907;-65
2021/03/28 05:01:35;;;;;;;15.58;9.08;;;;;;;2.50;81.14;100953.12;252140;1105;114977;-65
2021/03/28 05:07:12;;;;;;;11.03;7.20;;;;;;;2.52;82.89;100968.76;252225;1105;115467;-64
2021/03/28 05:13:00;;;;;;;13.47;9.03;;;;;;;2.60;82.25;100981.99;252028;1105;115318;-66
2021/03/28 05:18:41;;;;;;;11.43;8.73;;;;;;;2.70;81.75;100988.83;251399;1105;114791;-65
2021/03/28 05:24:25;;;;;;;12.33;8.10;;;;;;;2.65;80.43;100992.89;251842;1104;115313;-64
2021/03/28 05:29:48;;;;;;;10.40;8.40;;;;;;;2.68;81.07;101008.39;252863;1105;116442;-67
2021/03/28 05:35:16;;;;;;;7.30;6.53;;;;;;;2.70;80.51;101015.16;254005;1105;114948;-65
2021/03/28 05:40:45;;;;;;;11.15;7.70;;;;;;;2.79;80.68;101010.77;253851;1105;115131;-67
2021/03/28 05:46:07;;;;;;;10.55;7.70;;;;;;;2.75;78.72;101027.88;253850;1105;115257;-67
2021/03/28 05:51:29;;;;;;;31.73;26.87;;;;;;;2.82;79.05;101026.26;254482;1104;115434;-67
2021/03/28 05:57:03;;;;;;;11.03;7.58;;;;;;;2.84;78.90;101034.01;254320;1104;115579;-64
2021/03/28 06:02:25;;;;;;;9.63;8.10;;;;;;;2.96;80.05;101046.80;253889;1105;115406;-64
2021/03/28 06:08:08;;;;;;;8.95;6.92;;;;;;;3.18;79.23;101042.81;253578;1105;115454;-66
2021/03/28 06:13:31;;;;;;;8.75;6.17;;;;;;;3.33;77.44;101045.72;251113;1105;115583;-68
2021/03/28 06:18:45;;;;;;;13.80;7.90;;;;;;;3.46;77.56;101035.56;252178;1105;116075;-67
2021/03/28 06:24:25;;;;;;;13.97;8.33;;;;;;;3.58;75.95;101054.59;251419;1105;115942;-66
2021/03/28 06:30:00;;;;;;;8.83;7.33;;;;;;;3.68;76.18;101053.47;251091;1105;116771;-67
2021/03/28 06:35:18;;;;;;;8.35;6.90;;;;;;;3.78;76.43;101065.71;251615;1105;115810;-65
2021/03/28 06:40:42;;;;;;;8.63;6.30;;;;;;;3.90;77.23;101064.45;251113;1105;114586;-63
2021/03/28 06:46:00;;;;;;;10.95;8.40;;;;;;;4.03;74.80;101072.73;252114;1105;115266;-61
2021/03/28 06:51:55;;;;;;;13.53;8.08;;;;;;;4.17;73.92;101066.86;251286;1105;115631;-66
2021/03/28 06:57:11;;;;;;;11.20;9.65;;;;;;;4.24;73.06;101074.97;252430;1106;116132;-65
2021/03/28 07:02:53;;;;;;;10.00;7.95;;;;;;;4.53;73.74;101078.00;251177;1105;115916;-66
2021/03/28 07:08:03;;;;;;;9.48;8.23;;;;;;;4.87;72.98;101083.16;251350;1105;116336;-66
2021/03/28 07:13:18;;;;;;;14.18;9.43;;;;;;;5.53;70.55;101076.77;252428;1105;115371;-66
2021/03/28 07:18:27;;;;;;;9.85;7.80;;;;;;;5.59;69.37;101083.22;251139;1106;116273;-65
2021/03/28 07:23:49;;;;;;;15.05;11.63;;;;;;;5.43;69.99;101086.73;252596;1105;115827;-66
2021/03/28 07:29:31;;;;;;;17.82;12.75;;;;;;;5.65;70.32;101095.77;251529;1105;115911;-66
2021/03/28 07:35:06;;;;;;;19.35;12.88;;;;;;;6.23;69.83;101095.41;251707;1105;116818;-63
2021/03/28 07:40:54;;;;;;;16.87;12.90;;;;;;;6.76;66.36;101083.98;252208;1105;116123;-65
2021/03/28 07:45:59;;;;;;;14.47;12.65;;;;;;;6.79;64.39;101106.66;253302;1105;116003;-64
2021/03/28 07:51:02;;;;;;;11.75;10.40;;;;;;;6.56;65.31;101124.38;253474;1105;117905;-66
2021/03/28 07:56:27;;;;;;;17.27;12.35;;;;;;;6.39;65.06;101121.83;254104;1105;116877;-67
2021/03/28 08:01:55;;;;;;;12.58;9.90;;;;;;;6.85;66.24;101131.64;252042;1105;115754;-66
2021/03/28 08:07:17;;;;;;;14.38;11.78;;;;;;;7.02;66.04;101118.10;253551;1105;115129;-65
2021/03/28 08:13:02;;;;;;;11.00;9.67;;;;;;;6.81;66.71;101123.20;252267;1104;115898;-66
2021/03/28 08:18:12;;;;;;;10.60;9.33;;;;;;;6.92;64.41;101117.50;252588;1105;115930;-68
2021/03/28 08:23:30;;;;;;;17.70;10.97;;;;;;;7.55;65.87;101116.30;250986;1105;139726;-66
2021/03/28 08:29:03;;;;;;;7.08;5.33;;;;;;;7.46;61.25;101113.89;250930;1105;116403;-66
2021/03/28 08:34:15;;;;;;;10.72;6.83;;;;;;;7.64;61.96;101122.35;251157;1105;115925;-64
2021/03/28 08:39:26;;;;;;;10.55;7.72;;;;;;;7.96;65.17;101123.80;252036;1104;115441;-65
2021/03/28 08:44:50;;;;;;;18.80;9.70;;;;;;;8.33;61.30;101120.22;251387;1108;115693;-68
2021/03/28 08:50:05;;;;;;;14.35;10.32;;;;;;;8.12;60.01;101128.93;251218;1105;115746;-69
2021/03/28 08:55:49;;;;;;;9.98;5.40;;;;;;;7.92;59.60;101133.16;250852;1107;116446;-70
2021/03/28 09:01:04;;;;;;;9.70;5.92;;;;;;;8.23;60.50;101128.47;251225;1105;116340;-70
2021/03/28 09:06:32;;;;;;;9.65;6.20;;;;;;;8.67;60.16;101132.88;251064;1105;116984;-70
2021/03/28 09:12:03;;;;;;;5.42;4.92;;;;;;;8.42;58.55;101129.73;251814;1105;115731;-72
2021/03/28 09:17:43;;;;;;;9.68;6.33;;;;;;;8.23;57.84;101125.81;252045;1104;115576;-71
2021/03/28 09:23:15;;;;;;;10.72;6.45;;;;;;;8.39;56.70;101130.94;251706;1105;115460;-71
2021/03/28 09:28:52;;;;;;;12.75;9.08;;;;;;;8.29;58.05;101126.88;251896;1105;116269;-68
2021/03/28 09:34:35;;;;;;;10.10;5.33;;;;;;;8.30;57.88;101132.01;250918;1105;116041;-68
2021/03/28 09:39:54;;;;;;;6.55;5.22;;;;;;;8.84;56.75;101131.64;251087;1105;114973;-67
2021/03/28 09:45:17;;;;;;;11.08;4.33;;;;;;;8.76;56.11;101123.78;251559;1105;114974;-68
2021/03/28 09:50:57;;;;;;;12.85;5.85;;;;;;;8.97;56.44;101118.45;254178;1104;116014;-70
2021/03/28 09:56:24;;;;;;;2.93;2.60;;;;;;;9.20;56.20;101114.76;251414;1105;115791;-67
2021/03/28 10:01:33;;;;;;;;;;;;;;;9.05;53.13;101102.38;254439;1104;115524;-63
2021/03/28 10:06:37;;;;;;;8.90;5.20;;;;;;;8.99;54.04;101102.31;255070;1105;102555;-68
2021/03/28 10:12:02;;;;;;;4.00;3.22;;;;;;;9.24;52.41;101097.40;252375;1104;115160;-67
2021/03/28 10:17:37;;;;;;;6.10;3.60;;;;;;;9.21;55.72;101100.44;251624;1105;115406;-67
2021/03/28 10:23:05;;;;;;;8.95;4.95;;;;;;;9.01;52.13;101110.92;252554;1105;116010;-68
2021/03/28 10:28:30;;;;;;;4.05;3.37;;;;;;;8.86;53.59;101100.38;251023;1105;116103;-68
2021/03/28 10:33:52;;;;;;;7.67;4.47;;;;;;;8.86;56.27;101103.03;251085;1105;117025;-70
2021/03/28 10:38:56;;;;;;;7.12;3.90;;;;;;;9.18;52.27;101093.66;251784;1104;115871;-67
2021/03/28 10:44:52;;;;;;;8.00;3.67;;;;;;;9.94;53.53;101093.77;251102;1105;117642;-68
2021/03/28 10:50:31;;;;;;;12.65;5.15;;;;;;;10.40;48.87;101091.30;250833;1105;116354;-69
2021/03/28 10:55:47;;;;;;;6.53;4.70;;;;;;;10.17;48.77;101094.27;251406;1105;116391;-68
2021/03/28 11:01:21;;;;;;;3.27;2.43;;;;;;;9.60;50.15;101098.08;251144;1105;117526;-67
2021/03/28 11:07:08;;;;;;;4.00;3.63;;;;;;;9.05;50.40;101106.88;251110;1105;116168;-72
2021/03/28 11:12:26;;;;;;;7.85;3.20;;;;;;;9.04;51.41;101110.55;250977;1105;116680;-73
2021/03/28 11:17:54;;;;;;;6.87;3.60;;;;;;;9.40;51.08;101110.44;251914;1106;116227;-68
2021/03/28 11:23:07;;;;;;;5.65;3.50;;;;;;;9.36;51.07;101125.97;252531;1104;114687;-70
2021/03/28 11:28:50;;;;;;;11.00;4.20;;;;;;;9.34;48.55;101128.00;251007;1105;115685;-66
2021/03/28 11:34:02;;;;;;;7.50;3.70;;;;;;;9.33;49.49;101133.50;252133;1105;116272;-67
2021/03/28 11:39:15;;;;;;;11.50;4.17;;;;;;;9.31;50.00;101123.05;251059;1105;116073;-66
2021/03/28 11:44:36;;;;;;;7.10;4.80;;;;;;;9.37;51.68;101126.79;251093;1105;116732;-66
2021/03/28 11:49:58;;;;;;;6.05;4.08;;;;;;;9.24;49.58;101126.67;252672;1105;115362;-68
2021/03/28 11:55:14;;;;;;;4.62;3.90;;;;;;;9.60;48.39;101110.56;254446;1105;116413;-64
2021/03/28 12:00:40;;;;;;;8.65;4.53;;;;;;;9.70;47.60;101122.52;254424;1105;114920;-64
2021/03/28 12:06:21;;;;;;;9.05;4.28;;;;;;;9.44;46.64;101128.49;254239;1104;114721;-66
2021/03/28 12:11:48;;;;;;;5.47;3.40;;;;;;;10.02;48.83;101118.41;253978;1104;115579;-66
2021/03/28 12:17:06;;;;;;;6.60;3.12;;;;;;;10.16;46.62;101129.11;253506;1105;114924;-65
2021/03/28 12:22:19;;;;;;;5.95;2.67;;;;;;;10.03;45.47;101129.89;251704;1105;115574;-67
2021/03/28 12:27:36;;;;;;;17.27;3.87;;;;;;;10.22;44.33;101123.03;252526;1105;115546;-67
2021/03/28 12:32:50;;;;;;;7.20;3.57;;;;;;;10.26;45.29;101130.44;252644;1105;116306;-66
2021/03/28 12:37:53;;;;;;;4.78;2.72;;;;;;;10.21;44.45;101132.05;251840;1104;115378;-65
2021/03/28 12:42:59;;;;;;;6.60;3.62;;;;;;;10.37;47.35;101119.21;252333;1105;116642;-68
2021/03/28 12:48:11;;;;;;;5.35;2.58;;;;;;;10.37;45.27;101127.20;251006;1105;115724;-66
2021/03/28 12:53:22;;;;;;;2.42;2.22;;;;;;;10.34;45.62;101119.61;251177;1105;115740;-65
2021/03/28 12:58:39;;;;;;;5.40;3.05;;;;;;;10.48;45.86;101119.64;252220;1105;115699;-68
2021/03/28 13:03:46;;;;;;;4.20;2.00;;;;;;;10.41;44.64;101119.61;250902;1105;116058;-68
2021/03/28 13:09:00;;;;;;;3.80;2.17;;;;;;;10.28;43.93;101116.91;251219;1104;115503;-69
2021/03/28 13:14:07;;;;;;;10.97;5.93;;;;;;;10.25;44.06;101115.46;251073;1109;115297;-69
2021/03/28 13:19:26;;;;;;;3.03;2.27;;;;;;;10.38;43.83;101114.70;250693;1105;116011;-69
2021/03/28 13:24:30;;;;;;;4.40;3.33;;;;;;;10.41;45.85;101114.27;251042;1105;115161;-69
2021/03/28 13:29:40;;;;;;;2.72;1.95;;;;;;;10.55;44.49;101101.82;252320;1105;115382;-68
2021/03/28 13:34:50;;;;;;;4.58;2.67;;;;;;;10.50;43.44;101105.09;251067;1105;117012;-68
2021/03/28 13:40:11;;;;;;;7.03;2.50;;;;;;;10.42;43.30;101110.59;252455;1105;138690;-68
2021/03/28 13:45:20;;;;;;;4.97;2.45;;;;;;;10.18;42.32;101106.58;252694;1105;116628;-68
2021/03/28 13:50:26;;;;;;;3.02;1.55;;;;;;;10.43;43.21;101122.89;252477;1105;115839;-69
2021/03/28 13:55:38;;;;;;;4.92;2.90;;;;;;;10.39;41.85;101116.34;252351;1105;116542;-68
2021/03/28 14:00:44;;;;;;;4.72;2.55;;;;;;;10.51;43.36;101112.06;253882;1105;116342;-66
2021/03/28 14:05:48;;;;;;;6.67;2.80;;;;;;;10.38;41.72;101107.53;253383;1105;115603;-66
2021/03/28 14:10:56;;;;;;;8.65;2.22;;;;;;;10.24;41.19;101110.33;254417;1105;115263;-66
2021/03/28 14:15:59;;;;;;;6.50;3.35;;;;;;;9.96;44.79;101107.71;254212;1105;116217;-65
2021/03/28 14:21:21;;;;;;;3.08;2.75;;;;;;;9.90;43.83;101103.16;252588;1105;115614;-66
2021/03/28 14:26:30;;;;;;;4.35;1.85;;;;;;;9.85;42.85;101108.26;251033;1109;115220;-67
2021/03/28 14:31:46;;;;;;;3.33;2.35;;;;;;;9.96;42.37;101099.72;251728;1105;116842;-68
2021/03/28 14:37:01;;;;;;;7.37;2.37;;;;;;;9.87;44.31;101101.72;250913;1105;115780;-69
2021/03/28 14:42:13;;;;;;;2.62;1.80;;;;;;;9.80;45.59;101101.67;250803;1109;115791;-69
2021/03/28 14:47:35;;;;;;;6.75;2.55;;;;;;;9.67;45.02;101093.63;251608;1105;115849;-69
2021/03/28 14:53:02;;;;;;;5.35;2.65;;;;;;;9.54;44.67;101090.86;251054;1105;114984;-67
2021/03/28 14:58:21;;;;;;;4.95;2.60;;;;;;;9.24;44.19;101092.08;250906;1105;115005;-70
2021/03/28 15:03:37;;;;;;;3.80;2.20;;;;;;;9.13;46.13;101097.95;251271;1105;115577;-70
2021/03/28 15:09:02;;;;;;;6.72;2.15;;;;;;;9.05;47.07;101089.08;250860;1105;116069;-69
2021/03/28 15:14:23;;;;;;;3.80;2.33;;;;;;;9.05;45.95;101089.08;250905;1105;115976;-68
2021/03/28 15:19:30;;;;;;;9.73;3.60;;;;;;;9.12;46.20;101094.46;251155;1105;115919;-67
2021/03/28 15:25:02;;;;;;;1.47;1.27;;;;;;;9.05;47.78;101093.58;250958;1105;116266;-69
2021/03/28 15:30:06;;;;;;;5.25;2.50;;;;;;;8.95;46.20;101099.20;251628;1106;116901;-65
2021/03/28 15:35:35;;;;;;;5.17;2.47;;;;;;;8.89;45.18;101104.45;250828;1105;116883;-66
2021/03/28 15:41:03;;;;;;;4.53;2.27;;;;;;;8.82;48.16;101101.76;250973;1106;115498;-69
2021/03/28 15:46:28;;;;;;;3.75;2.08;;;;;;;8.72;44.78;101101.23;251523;1106;115707;-68
2021/03/28 15:51:57;;;;;;;3.70;2.30;;;;;;;8.62;44.87;101100.72;251041;1105;115010;-68
2021/03/28 15:57:22;;;;;;;3.47;1.47;;;;;;;8.49;43.87;101111.22;252049;1105;116234;-69
2021/03/28 16:03:01;;;;;;;3.25;2.50;;;;;;;8.40;46.51;101098.04;251012;1105;117760;-68
2021/03/28 16:08:33;;;;;;;8.80;3.00;;;;;;;8.29;46.55;101102.97;251138;1105;116212;-67
2021/03/28 16:13:37;;;;;;;2.25;1.25;;;;;;;8.14;46.67;101099.53;253910;1104;115133;-69
2021/03/28 16:19:18;;;;;;;2.70;1.92;;;;;;;8.06;46.45;101095.96;251210;1105;116451;-67
2021/03/28 16:24:33;;;;;;;6.22;2.95;;;;;;;7.99;46.62;101092.39;252987;1105;117181;-68
2021/03/28 16:30:14;;;;;;;4.10;1.87;;;;;;;7.84;48.39;101088.94;253170;1105;116724;-69
2021/03/28 16:35:32;;;;;;;1.77;0.82;;;;;;;7.67;49.02;101087.45;251123;1105;115663;-68
2021/03/28 16:40:41;;;;;;;4.97;3.10;;;;;;;7.58;49.24;101084.09;252321;1104;114973;-66
2021/03/28 16:45:52;;;;;;;3.30;2.70;;;;;;;7.39;50.78;101079.30;251048;1105;117267;-67
2021/03/28 16:51:01;;;;;;;10.20;3.75;;;;;;;7.23;54.39;101077.64;251694;1105;114735;-67
2021/03/28 16:56:26;;;;;;;4.28;2.30;;;;;;;7.06;54.51;101079.59;250813;1105;116233;-67
2021/03/28 17:01:42;;;;;;;3.67;2.35;;;;;;;6.84;54.29;101085.75;252436;1105;115094;-66
2021/03/28 17:07:01;;;;;;;;;;;;;;;6.59;56.40;101081.63;251083;1105;115186;-65
2021/03/28 17:12:16;;;;;;;6.58;2.62;;;;;;;6.24;57.00;101086.47;251872;1105;104460;-65
2021/03/28 17:17:36;;;;;;;5.50;2.75;;;;;;;5.98;59.43;101085.94;251592;1105;115234;-66
2021/03/28 17:23:11;;;;;;;17.33;3.03;;;;;;;5.72;61.61;101094.93;251029;1106;116643;-65
2021/03/28 17:28:20;;;;;;;7.90;2.85;;;;;;;5.50;62.08;101100.94;251255;1105;115777;-68
2021/03/28 17:33:57;;;;;;;4.72;3.08;;;;;;;5.26;60.92;101093.85;251558;1108;115343;-66
2021/03/28 17:39:14;;;;;;;3.13;1.90;;;;;;;5.05;62.28;101107.58;250976;1105;115787;-67
2021/03/28 17:44:22;;;;;;;5.95;2.85;;;;;;;4.84;62.25;101103.78;251228;1105;116084;-65
2021/03/28 17:49:34;;;;;;;6.42;3.25;;;;;;;4.67;63.07;101108.20;250804;1105;115157;-67
2021/03/28 17:54:51;;;;;;;3.93;2.93;;;;;;;4.53;65.80;101106.22;250976;1105;115349;-67
2021/03/28 17:59:56;;;;;;;10.60;3.87;;;;;;;4.35;63.50;101107.15;251116;1105;115900;-66
2021/03/28 18:05:12;;;;;;;4.03;2.65;;;;;;;4.23;65.27;101115.55;252941;1105;115771;-68
2021/03/28 18:10:31;;;;;;;8.58;3.15;;;;;;;4.08;64.07;101107.39;253440;1105;115729;-67
2021/03/28 18:15:36;;;;;;;2.90;2.00;;;;;;;3.90;66.89;101109.30;254716;1105;115803;-67
2021/03/28 18:20:41;;;;;;;7.87;4.03;;;;;;;3.68;69.49;101115.92;253462;1104;116218;-67
2021/03/28 18:25:47;;;;;;;11.90;6.75;;;;;;;3.47;69.80;101118.11;252489;1105;117297;-67
2021/03/28 18:31:07;;;;;;;11.30;5.42;;;;;;;3.25;70.78;101116.81;251304;1105;116076;-68
2021/03/28 18:36:28;;;;;;;14.13;7.67;;;;;;;3.13;71.29;101121.49;251366;1105;118709;-66
2021/03/28 18:41:47;;;;;;;29.48;13.58;;;;;;;3.05;71.70;101124.08;251865;1105;116582;-66
2021/03/28 18:47:02;;;;;;;40.40;18.90;;;;;;;2.95;71.32;101124.16;251424;1105;118178;-63
2021/03/28 18:52:19;;;;;;;42.13;15.77;;;;;;;2.89;72.45;101132.66;252394;1104;115983;-65
2021/03/28 18:57:32;;;;;;;40.60;19.70;;;;;;;2.75;71.86;101127.09;251805;1105;116362;-63
2021/03/28 19:03:04;;;;;;;34.40;13.03;;;;;;;2.61;72.83;101128.43;251447;1105;115759;-64
2021/03/28 19:08:32;;;;;;;24.98;15.48;;;;;;;2.52;73.03;101126.69;251541;1108;115533;-65
2021/03/28 19:13:35;;;;;;;36.23;18.87;;;;;;;2.44;73.26;101129.25;251353;1105;116033;-65
2021/03/28 19:18:39;;;;;;;39.53;18.92;;;;;;;2.35;74.74;101133.59;250975;1105;115395;-66
2021/03/28 19:23:49;;;;;;;38.23;19.30;;;;;;;2.28;74.36;101140.41;251260;1105;115311;-66
2021/03/28 19:29:14;;;;;;;40.17;21.12;;;;;;;2.21;74.55;101136.70;251843;1105;115770;-62
2021/03/28 19:34:27;;;;;;;39.60;18.15;;;;;;;2.14;75.59;101136.45;252812;1105;116219;-63
2021/03/28 19:39:31;;;;;;;43.83;20.12;;;;;;;2.05;74.95;101136.52;252356;1108;116507;-65
2021/03/28 19:44:50;;;;;;;44.93;18.07;;;;;;;2.00;75.76;101134.31;251823;1105;115668;-65
2021/03/28 19:49:57;;;;;;;30.65;15.20;;;;;;;1.94;75.65;101133.09;251992;1105;115098;-65
2021/03/28 19:55:05;;;;;;;24.12;10.58;;;;;;;1.83;77.44;101135.92;251165;1105;117286;-64
2021/03/28 20:00:17;;;;;;;33.23;18.52;;;;;;;1.69;79.14;101134.56;251207;1105;116283;-66
2021/03/28 20:05:45;;;;;;;40.75;21.68;;;;;;;1.61;78.59;101136.23;254295;1105;116166;-65
2021/03/28 20:10:57;;;;;;;54.13;25.68;;;;;;;1.65;77.35;101134.98;254253;1105;115151;-67
2021/03/28 20:16:03;;;;;;;46.10;25.25;;;;;;;1.75;76.39;101132.34;254032;1105;115015;-63
2021/03/28 20:21:23;;;;;;;51.70;20.48;;;;;;;1.88;77.02;101138.09;252777;1104;114935;-67
2021/03/28 20:26:26;;;;;;;40.20;22.37;;;;;;;1.92;77.06;101128.94;254274;1105;115870;-62
2021/03/28 20:31:35;;;;;;;46.33;24.00;;;;;;;2.01;77.38;101125.45;253457;1105;116537;-64
2021/03/28 20:36:42;;;;;;;39.88;21.45;;;;;;;2.15;77.22;101124.95;253215;1105;116610;-67
2021/03/28 20:41:50;;;;;;;43.63;22.33;;;;;;;2.28;74.99;101125.45;252791;1104;115689;-64
2021/03/28 20:47:00;;;;;;;34.80;17.40;;;;;;;2.42;74.29;101129.40;251770;1105;115612;-64
2021/03/28 20:52:05;;;;;;;37.70;18.05;;;;;;;2.52;72.84;101126.69;251332;1106;116080;-65
2021/03/28 20:57:10;;;;;;;41.95;21.77;;;;;;;2.54;73.02;101130.83;250773;1105;115725;-65
2021/03/28 21:02:22;;;;;;;42.75;19.60;;;;;;;2.66;72.47;101123.55;252059;1105;116068;-64
2021/03/28 21:11:58;;;;;;;34.38;17.65;;;;;;;2.82;71.65;101118.42;237258;1168;103104;-64
2021/03/28 21:17:04;;;;;;;40.63;19.10;;;;;;;2.87;71.89;101112.71;233245;1174;115989;-65
2021/03/28 21:22:07;;;;;;;31.55;16.95;;;;;;;2.84;71.54;101116.47;233062;1173;116126;-66
2021/03/28 21:27:12;;;;;;;30.70;17.23;;;;;;;2.82;71.05;101118.42;232529;1174;114688;-66
2021/03/28 21:32:17;;;;;;;25.43;15.00;;;;;;;2.84;71.12;101121.73;232773;1174;114948;-66
2021/03/28 21:37:22;;;;;;;36.87;18.60;;;;;;;2.85;71.16;101126.03;233618;1168;116027;-65
2021/03/28 21:42:33;;;;;;;33.33;17.53;;;;;;;2.79;72.22;101123.99;232830;1168;116537;-66
2021/03/28 21:47:38;;;;;;;34.20;17.63;;;;;;;2.72;71.55;101125.59;232829;1174;115406;-66
2021/03/28 21:52:47;;;;;;;34.60;17.45;;;;;;;2.70;73.13;101125.74;234255;1174;115124;-64
2021/03/28 21:58:02;;;;;;;36.67;16.50;;;;;;;2.75;72.87;101122.66;234217;1174;115040;-65
2021/03/28 22:03:17;;;;;;;30.50;15.65;;;;;;;2.81;72.39;101124.67;233979;1174;114960;-66
2021/03/28 22:08:20;;;;;;;27.90;16.90;;;;;;;2.84;71.61;101128.81;235142;1173;115100;-65
2021/03/28 22:13:54;;;;;;;32.28;18.30;;;;;;;2.85;71.71;101120.77;232615;1174;116402;-62
2021/03/28 22:18:58;;;;;;;32.75;15.65;;;;;;;2.87;71.18;101126.70;234932;1174;116932;-64
2021/03/28 22:24:02;;;;;;;26.80;16.70;;;;;;;2.89;72.41;101123.92;233981;1174;115423;-66
2021/03/28 22:29:12;;;;;;;20.70;13.90;;;;;;;2.97;72.54;101122.20;234712;1174;115842;-65
2021/03/28 22:34:16;;;;;;;20.73;13.68;;;;;;;3.05;72.81;101118.81;233006;1174;116281;-66
2021/03/28 22:39:22;;;;;;;29.47;14.87;;;;;;;3.09;72.30;101129.84;232759;1174;115401;-66
2021/03/28 22:44:29;;;;;;;23.57;13.53;;;;;;;3.08;71.85;101107.11;234034;1174;116416;-66
2021/03/28 22:49:36;;;;;;;26.75;13.20;;;;;;;3.09;71.71;101112.23;232946;1174;116038;-66
2021/03/28 22:54:39;;;;;;;29.68;13.73;;;;;;;3.15;71.06;101108.16;232791;1174;116038;-63
2021/03/28 22:59:43;;;;;;;28.00;14.55;;;;;;;3.25;70.88;101109.73;232631;1174;115795;-65
2021/03/28 23:04:49;;;;;;;24.87;13.40;;;;;;;3.32;70.83;101109.95;233851;1174;115409;-66
2021/03/28 23:09:53;;;;;;;24.35;14.90;;;;;;;3.32;70.64;101108.15;233028;1176;115499;-63
2021/03/28 23:14:59;;;;;;;26.30;14.13;;;;;;;3.32;71.80;101118.69;232958;1174;115464;-63
2021/03/28 23:20:07;;;;;;;25.75;14.90;;;;;;;3.31;72.92;101118.84;233983;1176;115707;-64
2021/03/28 23:25:12;;;;;;;27.78;13.13;;;;;;;3.29;73.70;101131.34;232654;1174;116647;-63
2021/03/28 23:30:19;;;;;;;33.35;15.10;;;;;;;3.32;74.81;101121.33;232640;1174;115971;-62
2021/03/28 23:35:22;;;;;;;29.07;15.57;;;;;;;3.38;74.34;101119.86;233263;1173;116293;-64
2021/03/28 23:40:27;;;;;;;25.33;15.07;;;;;;;3.47;73.57;101123.39;232511;1174;116594;-65
2021/03/28 23:45:38;;;;;;;26.43;14.83;;;;;;;3.49;72.62;101121.42;232594;1174;116569;-64
2021/03/28 23:50:43;;;;;;;34.43;15.23;;;;;;;3.53;71.89;101120.97;234023;1167;115427;-66
2021/03/28 23:55:50;;;;;;;30.40;15.17;;;;;;;3.56;72.56;101120.66;233297;1174;115945;-64
